»·PEaware :: SWA1514 KSNA-KLAS

SWA1514 :: KSNA-KLAS

FLIGHT INFORMATION

Flight Status: Arrived
Operator:
Southwest Airlines
More flights by this operator :: More flights under this callsign
Pilot: Cody B. (17747)
Aircraft: BOEING 737-800
(B738)
More flights by this aircraft type
Origin: KSNA John Wayne-Orange Co
United States
Destination: KLAS McCarran Intl
United States
More flights between these airports :: More routes between these airports
Route: +FINZZ2 MISEN KEPEC6
File this flight plan on PilotEdge
Remarks:
Altitude:
(Current/Filed)
29,000ft
Speed:
(Current/Filed)
450kts
Departed: 13-Apr-18 10:30 AM
Arrived: 13-Apr-18 11:16 AM
Distance/Time
Traveled:
197nm/0:46
Distance/Time
To Go:
Arrived

Flight Plot

Page will automatically refresh every two minutes.

Flight plan parsing failed; only flown route is shown


Map Options




Map Legend


Flown Route
Filed Route
Departure Airport
Arrival Airport
Navaid (VOR, NDB)
Fix

Horizontal Profiles

Position Reports

Time Latitude Longitude Heading Altitude Ground
Speed
13-Apr-18 09:39 33.676836 -117.863963 118 45ft 0kts
13-Apr-18 09:40 33.676836 -117.863963 118 45ft 0kts
13-Apr-18 09:41 33.676836 -117.863963 118 45ft 0kts
13-Apr-18 09:42 33.676836 -117.863963 118 45ft 0kts
13-Apr-18 09:43 33.676836 -117.863963 118 45ft 0kts
13-Apr-18 09:44 33.676836 -117.863963 118 45ft 0kts
13-Apr-18 09:45 33.676836 -117.863963 118 45ft 0kts
13-Apr-18 09:46 33.676836 -117.863963 118 45ft 0kts
13-Apr-18 09:47 33.676836 -117.863963 118 45ft 0kts
13-Apr-18 09:48 33.676836 -117.863963 118 45ft 0kts
13-Apr-18 09:49 33.676836 -117.863963 118 45ft 0kts
13-Apr-18 09:50 33.676836 -117.863963 118 45ft 0kts
13-Apr-18 09:51 33.676836 -117.863963 118 45ft 0kts
13-Apr-18 09:52 33.676836 -117.863963 118 45ft 0kts
13-Apr-18 09:53 33.676836 -117.863963 118 45ft 0kts
13-Apr-18 09:54 33.676836 -117.863963 118 45ft 0kts
13-Apr-18 09:55 33.676836 -117.863963 118 45ft 0kts
13-Apr-18 09:56 33.676836 -117.863963 118 45ft 0kts
13-Apr-18 09:57 33.676836 -117.863963 118 45ft 0kts
13-Apr-18 09:58 33.676836 -117.863963 118 45ft 0kts
13-Apr-18 09:59 33.676836 -117.863963 118 45ft 0kts
13-Apr-18 10:00 33.676836 -117.863963 118 45ft 0kts
13-Apr-18 10:01 33.676836 -117.863963 118 45ft 0kts
13-Apr-18 10:02 33.676836 -117.863963 118 45ft 0kts
13-Apr-18 10:03 33.676836 -117.863963 118 45ft 0kts
13-Apr-18 10:04 33.676836 -117.863963 117 45ft 0kts
13-Apr-18 10:05 33.676836 -117.863963 118 45ft 0kts
13-Apr-18 10:06 33.676836 -117.863963 118 45ft 0kts
13-Apr-18 10:07 33.676836 -117.863963 118 45ft 0kts
13-Apr-18 10:08 33.676836 -117.863963 118 45ft 0kts
13-Apr-18 10:09 33.676836 -117.863963 118 45ft 0kts
13-Apr-18 10:10 33.676836 -117.863963 117 45ft 0kts
13-Apr-18 10:11 33.676836 -117.863963 118 45ft 0kts
13-Apr-18 10:12 33.676836 -117.863963 117 45ft 0kts
13-Apr-18 10:13 33.676836 -117.863963 118 45ft 0kts
13-Apr-18 10:14 33.676836 -117.863963 117 45ft 0kts
13-Apr-18 10:15 33.676836 -117.863963 118 45ft 0kts
13-Apr-18 10:16 33.676836 -117.863963 118 45ft 0kts
13-Apr-18 10:17 33.676836 -117.863963 117 45ft 0kts
13-Apr-18 10:18 33.676836 -117.863963 117 45ft 0kts
13-Apr-18 10:19 33.676862 -117.864021 118 45ft 2kts
13-Apr-18 10:20 33.677086 -117.864556 76 45ft 1kts
13-Apr-18 10:21 33.676995 -117.864671 27 46ft 0kts
13-Apr-18 10:22 33.676995 -117.864671 27 46ft 0kts
13-Apr-18 10:23 33.676995 -117.864671 27 46ft 0kts
13-Apr-18 10:24 33.677522 -117.864323 28 44ft 7kts
13-Apr-18 10:25 33.680151 -117.862660 27 42ft 7kts
13-Apr-18 10:26 33.680633 -117.863059 297 43ft 3kts
13-Apr-18 10:27 33.680724 -117.863256 299 44ft 2kts
13-Apr-18 10:28 33.681464 -117.864932 296 44ft 3kts
13-Apr-18 10:29 33.675366 -117.869033 207 54ft 119kts
13-Apr-18 10:30 33.631951 -117.899695 209 2224ft 199kts
13-Apr-18 10:31 33.577422 -117.913466 183 4543ft 245kts
13-Apr-18 10:32 33.515430 -117.962071 226 7106ft 287kts
13-Apr-18 10:33 33.514894 -118.041204 311 10261ft 269kts
13-Apr-18 10:34 33.570067 -118.110474 330 12810ft 302kts
13-Apr-18 10:35 33.651877 -118.092637 20 15926ft 326kts
13-Apr-18 10:36 33.734269 -118.044677 19 18846ft 336kts
13-Apr-18 10:37 33.818585 -117.995463 18 21541ft 342kts
13-Apr-18 10:38 33.904486 -117.945173 19 23846ft 351kts
13-Apr-18 10:39 33.985806 -117.873508 27 25751ft 371kts
13-Apr-18 10:40 34.068530 -117.797535 26 27474ft 381kts
13-Apr-18 10:41 34.142879 -117.703173 40 29105ft 409kts
13-Apr-18 10:42 34.216103 -117.592607 40 29293ft 441kts
13-Apr-18 10:43 34.294125 -117.475437 40 29285ft 449kts
13-Apr-18 10:44 34.372337 -117.357910 39 29320ft 449kts
13-Apr-18 10:45 34.450236 -117.240735 40 29393ft 449kts
13-Apr-18 10:46 34.528222 -117.123087 40 29391ft 449kts
13-Apr-18 10:47 34.607151 -117.007019 39 29380ft 447kts
13-Apr-18 10:48 34.686642 -116.890971 39 29382ft 447kts
13-Apr-18 10:49 34.765942 -116.774753 39 29382ft 444kts
13-Apr-18 10:50 34.844501 -116.659328 39 29381ft 445kts
13-Apr-18 10:51 34.933867 -116.565529 27 28660ft 410kts
13-Apr-18 10:52 35.019640 -116.482743 28 26445ft 381kts
13-Apr-18 10:53 35.101051 -116.403648 30 24413ft 375kts
13-Apr-18 10:54 35.174871 -116.313000 36 24383ft 383kts
13-Apr-18 10:55 35.249088 -116.219771 35 24385ft 382kts
13-Apr-18 10:56 35.322175 -116.127742 35 24368ft 376kts
13-Apr-18 10:57 35.395560 -116.035070 35 21539ft 378kts
13-Apr-18 10:58 35.463462 -115.948660 35 18592ft 340kts
13-Apr-18 10:59 35.528054 -115.866698 36 15953ft 329kts
13-Apr-18 11:00 35.590940 -115.786892 38 14621ft 322kts
13-Apr-18 11:01 35.648109 -115.713694 37 13518ft 278kts
13-Apr-18 11:02 35.701312 -115.645903 37 13017ft 277kts
13-Apr-18 11:03 35.755965 -115.579975 21 13012ft 267kts
13-Apr-18 11:04 35.827560 -115.569484 359 13015ft 260kts
13-Apr-18 11:05 35.899518 -115.566066 359 13013ft 260kts
13-Apr-18 11:06 35.958457 -115.521947 64 12125ft 283kts
13-Apr-18 11:07 35.934115 -115.429908 121 10949ft 301kts
13-Apr-18 11:08 35.885539 -115.348327 122 9739ft 292kts
13-Apr-18 11:09 35.874323 -115.273731 22 8443ft 207kts
13-Apr-18 11:10 35.927656 -115.252158 18 6574ft 198kts
13-Apr-18 11:11 35.974584 -115.227074 24 4789ft 165kts
13-Apr-18 11:12 36.011829 -115.206210 23 3845ft 136kts
13-Apr-18 11:13 36.046036 -115.186889 22 2982ft 137kts
13-Apr-18 11:14 36.080712 -115.167241 23 2173ft 138kts
13-Apr-18 11:15 36.093570 -115.159674 76 2108ft 1kts
13-Apr-18 11:16 36.093500 -115.159109 111 2106ft 8kts
13-Apr-18 11:17 36.093402 -115.158829 114 2106ft 0kts
13-Apr-18 11:18 36.093224 -115.158358 115 2105ft 0kts
13-Apr-18 11:19 36.093043 -115.157896 115 2103ft 7kts
13-Apr-18 11:20 36.091284 -115.155513 203 2100ft 5kts
13-Apr-18 11:21 36.090681 -115.155857 206 2103ft 0kts
13-Apr-18 11:22 36.090262 -115.156100 204 2105ft 4kts
13-Apr-18 11:23 36.088131 -115.157315 204 2114ft 12kts
13-Apr-18 11:24 36.085163 -115.157071 155 2122ft 15kts
13-Apr-18 11:25 36.080875 -115.154587 154 2122ft 15kts
13-Apr-18 11:26 36.078810 -115.151863 91 2117ft 13kts
13-Apr-18 11:27 36.078613 -115.147275 31 2101ft 4kts
13-Apr-18 11:28 36.079580 -115.147625 31 2100ft 1kts
13-Apr-18 11:29 36.079923 -115.147123 56 2096ft 0kts

Navigation Log

Ident Type
Flight plan parsing failed, navigation log unavailable